バンダルスリブガワン の空港の天気 - METARとTAF

ブルネイ国際空港 ( WBSB / BWN ) - ブルネイ バンダルスリブガワン
飛行場実況気象(Metar)
観測時間02/17 22:30 BNT (02/17 14:30 UTC)
風向・風速南南東 2m/s
視程10km以上
天気現象
全天の4割程度の雲 雲底高度 460m
全天の8割程度の雲 雲底高度 9140m
気温27℃
湿度84%
気圧1013hPa
METARWBSB 171430Z 15003KT 9999 SCT015 BKN300 27/24 Q1013 NOSIG
過去の天気等 Google飛行場航空写真 Wunderground天気予報

過去48時間のMETAR

飛行場予報(TAF)
発表時間: 2/17 19:00 BNT (2/17 11:00 UTC)
予報対象時間: 17日20時 BNT ~ 19日2時 BNT
風向・風速北西 2m/s
視程10km以上
少しの雲 雲底高度 460m
少しの積乱雲 雲底高度 490m
18日0時 BNT ~ 18日2時 BNT に一時的に
視程7000m
天気現象弱い雷雨
全天の4割程度の雲 雲底高度 430m
少しの積乱雲 雲底高度 460m
18日11時 BNT ~ 18日13時 BNT に徐々に
風向・風速北北東 5m/s
少しの雲 雲底高度 490m
少しの積乱雲 雲底高度 520m
TAF WBSB 171100Z 1712/1818 32003KT 9999 FEW015 FEW016CB
TEMPO 1716/1718 7000 -TSRA SCT014 FEW015CB
BECMG 1803/1805 03010KT FEW016 FEW017CB